Time;durP1;ratioP1;P1;durP2;ratioP2;P2;SDS_P1;SDS_P2;PMS_P1;PMS_P2;Temp;Humidity;BMP_temperature;BMP_pressure;BME280_temperature;BME280_humidity;BME280_pressure;Samples;Min_cycle;Max_cycle;Signal;HPM_P1;HPM_P2
2023/01/02 00:01:49;;;;;;;11.00;5.00;;;10.30;99.90;;;;;;4970863;28;20031;-86
2023/01/02 00:04:40;;;;;;;7.32;3.80;;;10.30;99.90;;;;;;4970235;28;20038;-87
2023/01/02 00:07:06;;;;;;;9.65;4.20;;;10.40;99.90;;;;;;5072333;28;20038;-86
2023/01/02 00:09:31;;;;;;;12.70;4.32;;;10.60;99.90;;;;;;4970370;28;20466;-86
2023/01/02 00:11:57;;;;;;;11.35;4.47;;;10.60;99.90;;;;;;4955219;28;20545;-86
2023/01/02 00:14:22;;;;;;;11.35;4.60;;;10.50;99.90;;;;;;4971125;28;20755;-86
2023/01/02 00:16:48;;;;;;;12.57;4.57;;;10.40;99.90;;;;;;4971775;28;20543;-86
2023/01/02 00:19:14;;;;;;;11.00;4.45;;;10.40;99.90;;;;;;4954582;28;20088;-86
2023/01/02 00:21:39;;;;;;;8.15;4.63;;;10.40;99.90;;;;;;4970410;28;20022;-86
2023/01/02 00:24:05;;;;;;;8.32;4.55;;;10.30;99.90;;;;;;4954604;28;20057;-86
2023/01/02 00:26:31;;;;;;;8.63;4.10;;;10.30;99.90;;;;;;4970606;28;20035;-87
2023/01/02 00:28:57;;;;;;;6.53;3.75;;;10.30;99.90;;;;;;4971044;28;20026;-86
2023/01/02 00:31:22;;;;;;;8.82;4.20;;;10.20;99.90;;;;;;4954734;28;20038;-86
2023/01/02 00:33:48;;;;;;;11.98;3.90;;;10.20;99.90;;;;;;5055416;28;20125;-86
2023/01/02 00:36:14;;;;;;;7.95;3.88;;;10.20;99.90;;;;;;4954492;28;20033;-86
2023/01/02 00:38:40;;;;;;;7.38;4.15;;;10.10;99.90;;;;;;5054853;28;20043;-86
2023/01/02 00:41:06;;;;;;;13.35;5.60;;;10.10;99.90;;;;;;4954627;28;20026;-86
2023/01/02 00:43:32;;;;;;;9.95;4.70;;;10.00;99.90;;;;;;5055006;28;20057;-86
2023/01/02 00:45:58;;;;;;;10.57;4.68;;;10.00;99.90;;;;;;4954709;28;20421;-87
2023/01/02 00:48:23;;;;;;;7.03;4.22;;;9.90;99.90;;;;;;5054787;28;20109;-86
2023/01/02 00:50:49;;;;;;;30.63;11.90;;;9.80;99.90;;;;;;4970079;28;20031;-86
2023/01/02 00:53:16;;;;;;;15.93;5.53;;;9.80;99.90;;;;;;5054510;28;20034;-87
2023/01/02 00:55:45;;;;;;;10.32;5.03;;;10.00;99.90;;;;;;5054839;28;20123;-87
2023/01/02 00:58:12;;;;;;;14.98;5.47;;;10.10;99.90;;;;;;4953782;28;20039;-86
2023/01/02 01:00:38;;;;;;;42.28;14.45;;;10.20;99.90;;;;;;4969829;28;20084;-86
2023/01/02 01:03:04;;;;;;;16.23;6.88;;;10.30;99.90;;;;;;4954016;28;20531;-86
2023/01/02 01:05:30;;;;;;;16.67;6.00;;;10.30;99.90;;;;;;5054557;28;20034;-86
2023/01/02 01:07:56;;;;;;;9.70;4.75;;;10.40;99.90;;;;;;4969472;28;20023;-86
2023/01/02 01:10:24;;;;;;;23.52;6.60;;;10.40;99.90;;;;;;4971020;28;20027;-86
2023/01/02 01:12:50;;;;;;;24.90;9.18;;;10.40;99.90;;;;;;4953657;28;20038;-86
2023/01/02 01:15:16;;;;;;;19.92;6.88;;;10.40;99.90;;;;;;5054647;28;20066;-86
2023/01/02 01:17:43;;;;;;;23.17;8.40;;;10.40;99.90;;;;;;4969851;28;20057;-86
2023/01/02 01:20:09;;;;;;;10.35;4.90;;;10.30;99.90;;;;;;4954753;28;20027;-86
2023/01/02 01:22:35;;;;;;;9.50;4.75;;;10.20;99.90;;;;;;4953627;28;20034;-86
2023/01/02 01:25:01;;;;;;;10.25;3.58;;;10.20;99.90;;;;;;4953892;28;20080;-86
2023/01/02 01:27:26;;;;;;;9.35;3.90;;;10.20;99.90;;;;;;4969789;28;20050;-86
2023/01/02 01:29:52;;;;;;;8.30;3.95;;;10.20;99.90;;;;;;5054887;28;20027;-86
2023/01/02 01:32:18;;;;;;;6.88;3.30;;;10.20;99.90;;;;;;4953964;28;20057;-86
2023/01/02 01:34:43;;;;;;;11.25;4.03;;;10.20;99.90;;;;;;5054656;28;20601;-86
2023/01/02 01:37:11;;;;;;;9.13;3.80;;;10.20;99.90;;;;;;4970074;28;20767;-86
2023/01/02 01:39:37;;;;;;;8.05;3.55;;;10.30;99.90;;;;;;5070901;28;20035;-87
2023/01/02 01:42:02;;;;;;;8.05;3.42;;;10.30;99.90;;;;;;4953359;28;20363;-86
2023/01/02 01:44:41;;;;;;;5.50;2.90;;;10.30;99.90;;;;;;4969533;28;20134;-86
2023/01/02 01:47:26;;;;;;;7.68;3.92;;;10.30;99.90;;;;;;4953083;28;20030;-86
2023/01/02 01:50:20;;;;;;;13.88;3.60;;;10.30;99.90;;;;;;5053926;28;20035;-86
2023/01/02 01:52:51;;;;;;;9.75;3.97;;;10.30;99.90;;;;;;5069294;28;20382;-86
2023/01/02 01:55:22;;;;;;;5.60;3.25;;;10.30;99.90;;;;;;4953561;28;20424;-87
2023/01/02 01:58:01;;;;;;;7.57;3.60;;;10.30;99.90;;;;;;4969443;28;20046;-86
2023/01/02 02:00:28;;;;;;;11.18;3.58;;;10.30;99.90;;;;;;4952791;28;20121;-86
2023/01/02 02:02:58;;;;;;;18.17;4.35;;;10.30;99.90;;;;;;5053233;28;20050;-86
2023/01/02 02:05:27;;;;;;;6.45;3.72;;;10.40;99.90;;;;;;4947835;28;20574;-86
2023/01/02 02:08:33;;;;;;;5.40;2.95;;;10.40;99.90;;;;;;4953098;28;20031;-86
2023/01/02 02:10:59;;;;;;;5.25;3.47;;;10.40;99.90;;;;;;4967674;28;20126;-86
2023/01/02 02:13:25;;;;;;;6.45;3.55;;;10.40;99.90;;;;;;4956685;28;20177;-86
2023/01/02 02:16:14;;;;;;;8.82;3.30;;;10.30;99.90;;;;;;5058326;28;20087;-86
2023/01/02 02:18:51;;;;;;;7.85;3.40;;;10.30;99.90;;;;;;4969816;28;20034;-86
2023/01/02 02:21:39;;;;;;;6.20;3.10;;;10.30;99.90;;;;;;4972897;28;20110;-87
2023/01/02 02:24:28;;;;;;;14.10;3.45;;;10.30;99.90;;;;;;5023366;28;20682;-86
2023/01/02 02:27:20;;;;;;;12.23;3.83;;;10.30;99.90;;;;;;4972813;28;20058;-86
2023/01/02 02:30:01;;;;;;;14.40;5.80;;;10.40;99.90;;;;;;4954045;28;20031;-86
2023/01/02 02:33:09;;;;;;;8.10;3.47;;;10.40;99.90;;;;;;4956630;28;20027;-86
2023/01/02 02:35:48;;;;;;;7.07;3.35;;;10.30;99.90;;;;;;5074294;28;20137;-87
2023/01/02 02:38:51;;;;;;;8.82;3.20;;;10.30;99.90;;;;;;5074308;28;20038;-86
2023/01/02 02:41:33;;;;;;;13.55;3.22;;;10.30;99.90;;;;;;5051329;28;20038;-86
2023/01/02 02:44:02;;;;;;;;;;;10.20;99.90;;;;;;4972855;28;20053;-86
2023/01/02 02:46:42;;;;;;;10.27;3.30;;;10.10;99.90;;;;;;4956314;28;19910;-86
2023/01/02 02:49:42;;;;;;;10.93;3.55;;;10.10;99.90;;;;;;4948931;28;20027;-86
2023/01/02 02:52:39;;;;;;;16.65;3.05;;;10.20;99.90;;;;;;4959888;28;20034;-86
2023/01/02 02:55:09;;;;;;;8.75;3.35;;;10.20;99.90;;;;;;4956892;28;20648;-86
2023/01/02 02:57:37;;;;;;;12.63;4.07;;;10.10;99.90;;;;;;5057478;28;20045;-86
2023/01/02 03:00:09;;;;;;;6.93;3.47;;;10.20;99.90;;;;;;4971874;28;20034;-86
2023/01/02 03:02:35;;;;;;;9.35;3.33;;;10.20;99.90;;;;;;4956151;28;20034;-86
2023/01/02 03:05:04;;;;;;;8.52;3.13;;;10.10;99.90;;;;;;4987865;28;20038;-86
2023/01/02 03:07:57;;;;;;;5.43;2.83;;;10.10;99.90;;;;;;4972175;28;20037;-87
2023/01/02 03:10:34;;;;;;;5.93;2.90;;;10.00;99.90;;;;;;5051388;28;20027;-86
2023/01/02 03:12:59;;;;;;;6.63;3.47;;;10.00;99.90;;;;;;4956022;28;20402;-86
2023/01/02 03:15:43;;;;;;;11.98;3.55;;;10.10;99.90;;;;;;4955772;28;20022;-86
2023/01/02 03:18:24;;;;;;;7.53;3.45;;;10.10;99.90;;;;;;4954994;28;20391;-86
2023/01/02 03:21:05;;;;;;;10.07;3.53;;;10.10;99.90;;;;;;4955377;28;20371;-86
2023/01/02 03:23:41;;;;;;;12.20;3.58;;;10.10;99.90;;;;;;4970805;28;20407;-86
2023/01/02 03:26:06;;;;;;;9.85;3.03;;;10.20;99.90;;;;;;4955799;28;20034;-87
2023/01/02 03:28:35;;;;;;;8.20;3.38;;;10.20;99.90;;;;;;5056247;28;20026;-86
2023/01/02 03:31:03;;;;;;;8.57;3.28;;;10.20;99.90;;;;;;4971826;28;20065;-87
2023/01/02 03:33:38;;;;;;;8.20;3.28;;;10.10;99.90;;;;;;4955624;28;20034;-86
2023/01/02 03:36:12;;;;;;;10.43;3.35;;;10.10;99.90;;;;;;4971950;28;20034;-86
2023/01/02 03:38:46;;;;;;;6.93;3.28;;;10.10;99.90;;;;;;4971907;28;20467;-87
2023/01/02 03:41:19;;;;;;;9.73;3.72;;;10.00;99.90;;;;;;4964579;28;20117;-86
2023/01/02 03:43:49;;;;;;;5.65;3.30;;;10.00;99.90;;;;;;4971926;28;20058;-86
2023/01/02 03:46:23;;;;;;;7.10;3.72;;;10.00;99.90;;;;;;4955908;28;20023;-86
2023/01/02 03:49:05;;;;;;;11.88;3.17;;;9.90;99.90;;;;;;4955426;28;20037;-86
2023/01/02 03:51:31;;;;;;;;;;;10.00;99.90;;;;;;4956031;28;20030;-86
2023/01/02 03:53:58;;;;;;;8.93;3.28;;;10.00;99.90;;;;;;4955085;28;19979;-86
2023/01/02 03:56:37;;;;;;;9.65;3.10;;;10.00;99.90;;;;;;4955348;28;20093;-86
2023/01/02 03:59:33;;;;;;;8.48;3.13;;;10.00;99.90;;;;;;5055855;28;20043;-86
2023/01/02 04:02:01;;;;;;;6.40;3.35;;;10.00;99.90;;;;;;4960006;28;20489;-87
2023/01/02 04:04:33;;;;;;;5.68;3.22;;;10.00;99.90;;;;;;4977999;28;20035;-87
2023/01/02 04:07:02;;;;;;;12.98;4.05;;;10.00;99.90;;;;;;4970148;28;20039;-86
2023/01/02 04:09:31;;;;;;;6.38;3.10;;;9.90;99.90;;;;;;4970826;28;20034;-87
2023/01/02 04:12:09;;;;;;;6.32;3.33;;;9.90;99.90;;;;;;5055162;28;20130;-86
2023/01/02 04:15:08;;;;;;;11.98;3.58;;;9.90;99.90;;;;;;4954466;28;20065;-86
2023/01/02 04:17:52;;;;;;;8.00;3.67;;;9.90;99.90;;;;;;4965540;28;20444;-86
2023/01/02 04:20:32;;;;;;;9.23;3.95;;;9.80;99.90;;;;;;4961820;28;20474;-86
2023/01/02 04:23:11;;;;;;;12.50;3.60;;;9.80;99.90;;;;;;4979695;28;20035;-86
2023/01/02 04:25:54;;;;;;;8.90;4.72;;;9.70;99.90;;;;;;4966195;28;20729;-86
2023/01/02 04:28:28;;;;;;;10.00;4.22;;;9.60;99.90;;;;;;4964062;28;20037;-87
2023/01/02 04:31:01;;;;;;;10.45;4.72;;;9.50;99.90;;;;;;4954570;28;20034;-87
2023/01/02 04:33:30;;;;;;;10.77;4.22;;;9.50;99.90;;;;;;4953860;28;20027;-86
2023/01/02 04:35:55;;;;;;;15.80;6.55;;;9.50;99.90;;;;;;4954183;28;20088;-86
2023/01/02 04:38:21;;;;;;;8.23;4.32;;;9.40;99.90;;;;;;4953680;28;20038;-87
2023/01/02 04:40:48;;;;;;;12.52;4.90;;;9.50;99.90;;;;;;4969893;28;20077;-86
2023/01/02 04:43:20;;;;;;;11.32;4.82;;;9.40;99.90;;;;;;4954616;28;20073;-86
2023/01/02 04:45:47;;;;;;;12.50;4.68;;;9.40;99.90;;;;;;4970804;28;20046;-87
2023/01/02 04:48:14;;;;;;;11.13;4.60;;;9.30;99.90;;;;;;4954392;28;20031;-87
2023/01/02 04:50:39;;;;;;;15.85;3.92;;;9.30;99.90;;;;;;4970578;28;20424;-87
2023/01/02 04:53:05;;;;;;;8.13;3.70;;;9.20;99.90;;;;;;4971925;28;20030;-86
2023/01/02 04:55:31;;;;;;;8.63;3.92;;;9.30;99.90;;;;;;4954449;28;20031;-87
2023/01/02 04:57:57;;;;;;;11.57;4.03;;;9.30;99.90;;;;;;5054800;28;20062;-86
2023/01/02 05:00:23;;;;;;;5.95;3.28;;;9.40;99.90;;;;;;4954644;28;20031;-86
2023/01/02 05:02:48;;;;;;;8.20;3.80;;;9.40;99.90;;;;;;4954455;28;20027;-86
2023/01/02 05:05:14;;;;;;;9.20;3.45;;;9.40;99.90;;;;;;4953527;28;20035;-87
2023/01/02 05:07:40;;;;;;;10.52;3.92;;;9.50;99.90;;;;;;4970455;28;20572;-87
2023/01/02 05:10:07;;;;;;;7.10;3.63;;;9.50;99.90;;;;;;4969968;28;20554;-87
2023/01/02 05:12:34;;;;;;;7.78;3.83;;;9.40;99.90;;;;;;4953921;28;20394;-86
2023/01/02 05:15:00;;;;;;;9.00;3.58;;;9.40;99.90;;;;;;4953892;28;20031;-87
2023/01/02 05:17:25;;;;;;;11.00;3.60;;;9.40;99.90;;;;;;4953939;28;20031;-86
2023/01/02 05:19:51;;;;;;;10.55;3.30;;;9.30;99.90;;;;;;4953887;28;20035;-87
2023/01/02 05:25:01;;;;;;;7.05;3.58;;;9.20;99.90;;;;;;4968188;28;20047;-87
2023/01/02 05:27:26;;;;;;;8.32;4.15;;;9.10;99.90;;;;;;4953434;28;20026;-87
2023/01/02 05:29:52;;;;;;;6.47;2.92;;;8.90;99.90;;;;;;5053823;28;20401;-87
2023/01/02 05:32:17;;;;;;;8.15;3.22;;;8.90;99.90;;;;;;4953713;28;20029;-85
2023/01/02 05:34:43;;;;;;;7.38;2.83;;;8.70;99.90;;;;;;5054403;28;20027;-87
2023/01/02 05:37:09;;;;;;;8.30;3.20;;;8.60;99.90;;;;;;4969706;28;20092;-86
2023/01/02 05:39:34;;;;;;;6.20;3.28;;;8.50;99.90;;;;;;5053947;28;20478;-86
2023/01/02 05:42:00;;;;;;;7.28;3.50;;;8.40;99.90;;;;;;4969349;28;20833;-87
2023/01/02 05:44:26;;;;;;;11.77;3.20;;;8.30;99.90;;;;;;5070745;28;20057;-87
2023/01/02 05:46:52;;;;;;;10.27;3.13;;;8.20;99.90;;;;;;4971408;28;20057;-86
2023/01/02 05:49:18;;;;;;;6.18;3.25;;;8.20;99.90;;;;;;5075214;28;20088;-86
2023/01/02 05:51:43;;;;;;;7.03;3.15;;;8.20;99.90;;;;;;4972975;28;20026;-86
2023/01/02 05:54:09;;;;;;;9.00;3.10;;;8.20;99.90;;;;;;5058770;28;20038;-87
2023/01/02 05:56:35;;;;;;;17.95;3.20;;;8.10;99.90;;;;;;4957259;28;20042;-86
2023/01/02 05:59:00;;;;;;;8.02;3.05;;;8.00;99.90;;;;;;4973153;28;20087;-86
2023/01/02 06:01:28;;;;;;;11.02;3.47;;;8.00;99.90;;;;;;4956800;28;20038;-86
2023/01/02 06:03:59;;;;;;;12.55;3.80;;;8.00;99.90;;;;;;5057894;28;20042;-86
2023/01/02 06:06:29;;;;;;;9.80;4.05;;;7.90;99.90;;;;;;4956928;28;20030;-87
2023/01/02 06:08:55;;;;;;;9.27;3.85;;;7.90;99.90;;;;;;4972588;28;20154;-87
2023/01/02 06:11:21;;;;;;;8.25;3.30;;;8.00;99.90;;;;;;4956071;28;20114;-86
2023/01/02 06:13:46;;;;;;;7.60;2.85;;;8.10;99.90;;;;;;5074722;28;20117;-86
2023/01/02 06:16:12;;;;;;;9.38;3.88;;;8.10;99.90;;;;;;4972779;28;20887;-87
2023/01/02 06:18:39;;;;;;;10.38;2.95;;;8.10;99.90;;;;;;4972566;28;20023;-87
2023/01/02 06:21:09;;;;;;;4.90;2.10;;;8.20;99.90;;;;;;4956790;28;20033;-87
2023/01/02 06:23:35;;;;;;;11.90;2.95;;;8.20;99.90;;;;;;4957029;28;20751;-86
2023/01/02 06:26:06;;;;;;;7.10;3.70;;;8.20;99.90;;;;;;4956978;28;20088;-87
2023/01/02 06:28:32;;;;;;;12.25;3.30;;;8.10;99.90;;;;;;4956931;28;20062;-87
2023/01/02 06:31:03;;;;;;;9.20;3.83;;;8.10;99.90;;;;;;4972402;28;20031;-86
2023/01/02 06:33:29;;;;;;;7.95;3.47;;;8.10;99.90;;;;;;4973805;28;20054;-86
2023/01/02 06:36:06;;;;;;;10.45;3.90;;;8.10;99.90;;;;;;4956061;28;20043;-87
2023/01/02 06:38:32;;;;;;;9.93;3.42;;;8.00;99.90;;;;;;4972555;28;20058;-86
2023/01/02 06:40:59;;;;;;;7.97;2.72;;;8.00;99.90;;;;;;4956755;28;20027;-86
2023/01/02 06:43:26;;;;;;;10.00;2.83;;;7.90;99.90;;;;;;4956797;28;20031;-86
2023/01/02 06:45:52;;;;;;;12.77;3.83;;;7.90;99.90;;;;;;4972449;28;20088;-87
2023/01/02 06:48:18;;;;;;;10.75;3.47;;;7.80;99.90;;;;;;4956722;28;20375;-86
2023/01/02 06:50:44;;;;;;;10.70;3.72;;;7.90;99.90;;;;;;4955837;28;20027;-87
2023/01/02 06:53:12;;;;;;;8.80;3.70;;;8.00;99.90;;;;;;5074651;28;20045;-87
2023/01/02 06:55:38;;;;;;;12.88;4.82;;;8.30;99.90;;;;;;4972564;28;20034;-87
2023/01/02 06:58:04;;;;;;;23.90;5.97;;;8.50;99.90;;;;;;4973304;28;20382;-86
2023/01/02 07:00:30;;;;;;;8.55;3.05;;;8.70;99.90;;;;;;5057162;28;20030;-87
2023/01/02 07:02:56;;;;;;;18.35;3.30;;;9.00;99.90;;;;;;4971387;28;20054;-87
2023/01/02 07:05:22;;;;;;;11.27;3.60;;;9.50;99.90;;;;;;5056398;28;20058;-87
2023/01/02 07:07:48;;;;;;;11.23;3.40;;;9.90;99.90;;;;;;4971721;28;20471;-87
2023/01/02 07:10:13;;;;;;;13.80;3.25;;;9.90;99.90;;;;;;4971828;28;20038;-86
2023/01/02 07:12:39;;;;;;;11.82;3.78;;;10.00;99.90;;;;;;4972452;28;20050;-86
2023/01/02 07:15:05;;;;;;;10.75;3.30;;;10.10;99.90;;;;;;4972016;28;20148;-86
2023/01/02 07:17:32;;;;;;;8.85;2.70;;;10.20;99.90;;;;;;4950686;28;20039;-87
2023/01/02 07:19:58;;;;;;;9.23;3.13;;;10.20;99.90;;;;;;4955334;28;20470;-87
2023/01/02 07:22:24;;;;;;;11.02;3.17;;;10.20;99.90;;;;;;5071008;28;20450;-88
2023/01/02 07:24:50;;;;;;;16.55;3.85;;;10.30;99.90;;;;;;5019543;28;20110;-89
2023/01/02 07:27:16;;;;;;;7.95;3.08;;;10.30;99.90;;;;;;5057204;28;20100;-88
2023/01/02 07:29:42;;;;;;;15.52;2.65;;;10.40;99.90;;;;;;4955698;28;20118;-87
2023/01/02 07:32:07;;;;;;;8.10;2.53;;;10.50;99.90;;;;;;4966296;28;20021;-88
2023/01/02 07:34:33;;;;;;;9.50;2.20;;;10.70;99.90;;;;;;4988590;28;20020;-88
2023/01/02 07:36:59;;;;;;;9.13;2.80;;;10.70;99.90;;;;;;5015954;28;20036;-88
2023/01/02 07:39:25;;;;;;;8.27;2.85;;;10.70;99.90;;;;;;5020187;28;20031;-88
2023/01/02 07:41:51;;;;;;;11.07;2.78;;;10.70;99.90;;;;;;4972755;28;20031;-88
2023/01/02 07:44:17;;;;;;;9.80;2.28;;;10.60;99.90;;;;;;4956807;28;20027;-88
2023/01/02 07:46:43;;;;;;;10.55;2.80;;;10.50;99.90;;;;;;5020873;28;20028;-89
2023/01/02 07:49:12;;;;;;;11.40;3.33;;;10.40;99.90;;;;;;5056400;28;20042;-88
2023/01/02 07:51:38;;;;;;;10.82;2.40;;;10.20;99.90;;;;;;4955930;28;20051;-88
2023/01/02 07:54:04;;;;;;;6.45;2.92;;;10.10;99.90;;;;;;4955592;28;20062;-88
2023/01/02 07:56:29;;;;;;;9.85;3.15;;;10.00;99.90;;;;;;4956119;28;20039;-89
2023/01/02 07:58:55;;;;;;;11.95;3.78;;;9.90;99.90;;;;;;4969743;28;20402;-88
2023/01/02 08:01:21;;;;;;;13.10;3.53;;;9.70;99.90;;;;;;4971249;28;20062;-87
2023/01/02 08:04:12;;;;;;;11.88;4.00;;;9.70;99.90;;;;;;4965922;28;20551;-88
2023/01/02 08:06:40;;;;;;;9.37;3.23;;;9.60;99.90;;;;;;4954989;28;20030;-89
2023/01/02 08:09:06;;;;;;;11.15;3.17;;;9.60;99.90;;;;;;5071444;28;20055;-88
2023/01/02 08:11:32;;;;;;;10.32;3.22;;;9.80;99.90;;;;;;4968897;28;20027;-88
2023/01/02 08:13:58;;;;;;;10.95;3.20;;;9.90;99.90;;;;;;5073247;28;20565;-88
2023/01/02 08:16:23;;;;;;;9.88;3.50;;;10.00;99.90;;;;;;4956013;28;20018;-88
2023/01/02 08:18:54;;;;;;;12.05;4.15;;;10.10;99.90;;;;;;4956364;28;20042;-88
2023/01/02 08:21:20;;;;;;;13.52;3.97;;;10.20;99.90;;;;;;4955853;28;20034;-88
2023/01/02 08:23:46;;;;;;;14.70;4.85;;;10.30;99.90;;;;;;4956143;28;20027;-88
2023/01/02 08:26:12;;;;;;;11.55;4.25;;;10.40;99.90;;;;;;4956374;28;20023;-88
2023/01/02 08:28:40;;;;;;;10.40;3.78;;;10.50;99.90;;;;;;4972285;28;20027;-88
2023/01/02 08:31:14;;;;;;;18.67;4.65;;;10.60;99.90;;;;;;4953734;28;20042;-88
2023/01/02 08:33:40;;;;;;;9.70;4.20;;;10.70;99.90;;;;;;4955532;28;20023;-89
2023/01/02 08:36:07;;;;;;;16.52;4.90;;;10.70;99.90;;;;;;4954099;28;20674;-88
2023/01/02 08:38:33;;;;;;;14.48;3.40;;;10.80;99.90;;;;;;4954625;28;20088;-89
2023/01/02 08:40:59;;;;;;;13.23;4.00;;;10.90;99.90;;;;;;5072500;28;20483;-88
2023/01/02 08:43:25;;;;;;;7.95;3.78;;;11.00;99.90;;;;;;5056024;28;20114;-88
2023/01/02 08:45:51;;;;;;;12.82;3.63;;;11.10;99.90;;;;;;4955086;28;20073;-88
2023/01/02 08:48:17;;;;;;;20.00;3.58;;;11.10;99.90;;;;;;4954596;28;20054;-88
2023/01/02 08:50:43;;;;;;;20.77;3.65;;;11.20;99.90;;;;;;4955306;28;20023;-88
2023/01/02 08:53:08;;;;;;;9.75;3.25;;;11.30;99.90;;;;;;4970883;28;20080;-88
2023/01/02 08:55:34;;;;;;;6.95;3.47;;;11.40;99.90;;;;;;4954810;28;20122;-88
2023/01/02 08:58:00;;;;;;;13.63;4.05;;;11.50;99.90;;;;;;4951079;28;20479;-88
2023/01/02 09:00:26;;;;;;;7.45;3.20;;;11.40;99.90;;;;;;4955081;28;20035;-88
2023/01/02 09:02:51;;;;;;;16.15;3.30;;;11.50;99.90;;;;;;4954761;28;20035;-88
2023/01/02 09:05:17;;;;;;;15.75;4.30;;;11.60;99.90;;;;;;5055240;28;20061;-88
2023/01/02 09:07:43;;;;;;;17.42;3.60;;;11.80;99.90;;;;;;4976263;28;20019;-88
2023/01/02 09:10:09;;;;;;;11.85;2.80;;;12.00;99.90;;;;;;5003056;28;20083;-88
2023/01/02 09:12:35;;;;;;;20.75;3.92;;;12.20;99.90;;;;;;4970672;28;20475;-87
2023/01/02 09:15:02;;;;;;;12.20;2.90;;;12.50;99.90;;;;;;4954693;28;20114;-88
2023/01/02 09:17:28;;;;;;;14.32;3.20;;;12.60;99.90;;;;;;4976130;28;20034;-88
2023/01/02 09:19:54;;;;;;;24.42;6.88;;;12.60;99.90;;;;;;4954804;28;20039;-88
2023/01/02 09:22:19;;;;;;;15.63;3.50;;;12.60;99.90;;;;;;5056478;28;20057;-89
2023/01/02 09:24:45;;;;;;;14.93;3.80;;;12.70;99.90;;;;;;4980900;28;20060;-89
2023/01/02 09:27:11;;;;;;;28.70;3.70;;;12.80;99.90;;;;;;5055579;28;20478;-88
2023/01/02 09:29:37;;;;;;;19.25;3.75;;;12.80;99.90;;;;;;4954549;28;20022;-87
2023/01/02 09:32:02;;;;;;;14.93;4.55;;;12.80;99.90;;;;;;4954858;28;20030;-87
2023/01/02 09:34:28;;;;;;;21.33;4.53;;;12.80;99.90;;;;;;4955061;28;20034;-87
2023/01/02 09:36:54;;;;;;;16.42;4.13;;;12.80;99.90;;;;;;4954553;28;20426;-88
2023/01/02 09:39:19;;;;;;;19.25;5.38;;;12.80;99.90;;;;;;4954980;28;20069;-88
2023/01/02 09:41:50;;;;;;;12.07;3.50;;;12.80;99.90;;;;;;4984763;28;20032;-87
2023/01/02 09:44:25;;;;;;;17.10;3.40;;;12.90;99.90;;;;;;4956104;28;20035;-88
2023/01/02 09:46:59;;;;;;;12.43;3.90;;;12.90;99.90;;;;;;4954345;28;20031;-88
2023/01/02 09:49:32;;;;;;;15.82;3.75;;;13.00;99.90;;;;;;4954201;28;20023;-88
2023/01/02 09:51:58;;;;;;;18.58;4.78;;;13.00;99.90;;;;;;4954543;28;20097;-88
2023/01/02 09:54:26;;;;;;;21.05;3.35;;;13.00;99.90;;;;;;5050451;28;20470;-88
2023/01/02 09:57:23;;;;;;;24.17;3.70;;;13.10;99.90;;;;;;4954128;28;20061;-88
2023/01/02 10:00:01;;;;;;;23.25;4.22;;;13.30;99.90;;;;;;5026707;28;20032;-87
2023/01/02 10:02:41;;;;;;;18.13;4.32;;;13.60;99.90;;;;;;4953739;28;20031;-87
2023/01/02 10:05:07;;;;;;;12.47;3.30;;;13.90;99.90;;;;;;4953774;28;20039;-87
2023/01/02 10:07:52;;;;;;;17.00;5.22;;;13.70;99.90;;;;;;4954172;28;20030;-88
2023/01/02 10:10:36;;;;;;;17.48;4.55;;;13.40;99.90;;;;;;4970182;28;20384;-88
2023/01/02 10:13:22;;;;;;;13.57;3.35;;;13.30;99.90;;;;;;4952158;28;20031;-88
2023/01/02 10:15:50;;;;;;;17.67;3.17;;;13.10;99.90;;;;;;4969921;28;20039;-88
2023/01/02 10:18:36;;;;;;;22.92;3.55;;;13.20;99.90;;;;;;4954063;28;20041;-87
2023/01/02 10:21:15;;;;;;;24.17;4.00;;;13.50;99.90;;;;;;4950036;28;20483;-88
2023/01/02 10:23:48;;;;;;;19.13;4.72;;;13.50;99.90;;;;;;4949511;28;20052;-88
2023/01/02 10:26:19;;;;;;;28.85;4.20;;;13.50;99.90;;;;;;5055205;28;20085;-87
2023/01/02 10:28:54;;;;;;;25.58;3.63;;;13.50;99.90;;;;;;4970071;28;20042;-87
2023/01/02 10:31:23;;;;;;;20.42;4.15;;;13.60;99.90;;;;;;5055946;28;20046;-88
2023/01/02 10:33:59;;;;;;;14.98;3.55;;;13.40;99.90;;;;;;5075097;28;20035;-87
2023/01/02 10:36:38;;;;;;;22.30;3.85;;;13.20;99.90;;;;;;4973201;28;20114;-88
2023/01/02 10:39:07;;;;;;;17.83;4.00;;;13.20;99.90;;;;;;5075475;28;20351;-87
2023/01/02 10:41:34;;;;;;;17.85;4.30;;;13.20;99.90;;;;;;4973011;28;20023;-88
2023/01/02 10:44:04;;;;;;;11.20;3.20;;;13.20;99.90;;;;;;4974145;28;20023;-89
2023/01/02 10:46:38;;;;;;;15.25;4.20;;;13.10;99.90;;;;;;5057483;28;20117;-88
2023/01/02 10:49:07;;;;;;;20.77;3.88;;;12.90;99.90;;;;;;5074423;28;20121;-87
2023/01/02 10:51:35;;;;;;;13.73;3.92;;;12.80;99.90;;;;;;5062325;28;20036;-88
2023/01/02 10:54:07;;;;;;;13.50;4.15;;;12.70;99.90;;;;;;4954725;28;20035;-88
2023/01/02 10:56:36;;;;;;;18.92;4.32;;;12.70;99.90;;;;;;5073364;28;20026;-88
2023/01/02 10:59:02;;;;;;;9.68;4.28;;;12.60;99.90;;;;;;4952499;28;20030;-88
2023/01/02 11:01:29;;;;;;;20.13;4.22;;;12.60;99.90;;;;;;5057380;28;20829;-87
2023/01/02 11:03:54;;;;;;;12.88;3.72;;;12.60;99.90;;;;;;4981983;28;20058;-88
2023/01/02 11:06:30;;;;;;;11.65;3.65;;;12.50;99.90;;;;;;4994321;28;20070;-88
2023/01/02 11:08:58;;;;;;;23.48;3.85;;;12.50;99.90;;;;;;4956851;28;20062;-88
2023/01/02 11:11:25;;;;;;;23.42;3.97;;;12.50;99.90;;;;;;4955078;28;20071;-87
2023/01/02 11:13:55;;;;;;;26.25;4.20;;;12.60;99.90;;;;;;4972493;28;20035;-88
2023/01/02 11:16:24;;;;;;;17.33;4.25;;;12.70;99.90;;;;;;4952826;28;20031;-88
2023/01/02 11:18:57;;;;;;;16.02;4.50;;;12.80;99.90;;;;;;4961876;28;20386;-88
2023/01/02 11:21:28;;;;;;;17.08;4.20;;;12.70;99.90;;;;;;4952599;28;20038;-88
2023/01/02 11:24:10;;;;;;;18.48;3.80;;;12.50;99.90;;;;;;5052490;28;20034;-87
2023/01/02 11:26:38;;;;;;;14.07;3.75;;;12.40;99.90;;;;;;5053273;28;20026;-88
2023/01/02 11:29:11;;;;;;;17.88;3.78;;;12.40;99.90;;;;;;4952204;28;20763;-86
2023/01/02 11:31:46;;;;;;;18.00;3.63;;;12.50;99.90;;;;;;5005492;28;20062;-88
2023/01/02 11:34:24;;;;;;;17.27;4.40;;;12.60;99.90;;;;;;5066242;28;20142;-87
2023/01/02 11:37:11;;;;;;;18.75;3.63;;;12.60;99.90;;;;;;4969829;28;20034;-87
2023/01/02 11:39:38;;;;;;;24.23;4.93;;;12.60;99.90;;;;;;4961568;28;20054;-87
2023/01/02 11:45:09;;;;;;;14.90;3.90;;;13.10;99.90;;;;;;4987194;28;20035;-88
2023/01/02 11:47:43;;;;;;;14.90;3.20;;;13.60;99.90;;;;;;4971101;28;20101;-87
2023/01/02 11:50:28;;;;;;;14.98;3.60;;;13.90;99.90;;;;;;4955301;28;20057;-89
2023/01/02 11:53:00;;;;;;;12.02;4.72;;;14.00;99.90;;;;;;4949008;28;20055;-87
2023/01/02 11:55:45;;;;;;;21.48;4.15;;;13.80;99.90;;;;;;4953130;28;20545;-88
2023/01/02 11:58:16;;;;;;;13.48;3.55;;;13.80;99.90;;;;;;4958457;28;20070;-88
2023/01/02 12:00:43;;;;;;;12.70;3.22;;;13.60;99.90;;;;;;4948430;28;20034;-88
2023/01/02 12:03:22;;;;;;;17.90;4.15;;;13.70;99.90;;;;;;5049401;28;20059;-88
2023/01/02 12:05:58;;;;;;;16.80;4.25;;;13.80;99.90;;;;;;4962615;28;20066;-88
2023/01/02 12:09:03;;;;;;;18.23;4.00;;;13.80;99.90;;;;;;4963268;28;20031;-88
2023/01/02 12:11:41;;;;;;;23.20;4.10;;;13.60;99.90;;;;;;4956833;28;20090;-88
2023/01/02 12:14:11;;;;;;;13.18;3.88;;;13.40;99.90;;;;;;4962181;28;20063;-88
2023/01/02 12:16:57;;;;;;;16.73;4.03;;;13.40;99.90;;;;;;5062002;28;20035;-88
2023/01/02 12:19:57;;;;;;;18.35;3.95;;;13.50;99.90;;;;;;4965330;28;20406;-88
2023/01/02 12:22:48;;;;;;;14.15;3.90;;;13.40;99.90;;;;;;4958897;28;20022;-88
2023/01/02 12:25:35;;;;;;;11.70;4.13;;;13.40;99.90;;;;;;4968575;28;20069;-87
2023/01/02 12:28:39;;;;;;;20.85;4.32;;;13.50;99.90;;;;;;4951812;28;20382;-88
2023/01/02 12:31:26;;;;;;;12.77;3.45;;;13.40;99.90;;;;;;5062944;28;20110;-88
2023/01/02 12:34:07;;;;;;;15.15;3.55;;;13.10;99.90;;;;;;4962022;28;20505;-87
2023/01/02 12:37:05;;;;;;;15.45;4.15;;;13.00;99.90;;;;;;4977804;28;20042;-88
2023/01/02 12:39:38;;;;;;;14.50;3.35;;;13.00;99.90;;;;;;4982866;28;20058;-87
2023/01/02 12:42:29;;;;;;;19.92;4.55;;;12.90;99.90;;;;;;4955207;28;20114;-88
2023/01/02 12:44:58;;;;;;;14.50;4.82;;;12.80;99.90;;;;;;4965091;28;20486;-88
2023/01/02 12:47:43;;;;;;;13.60;3.40;;;12.80;99.90;;;;;;4985784;28;20938;-88
2023/01/02 12:50:32;;;;;;;10.43;3.47;;;12.80;99.90;;;;;;4955261;28;20031;-88
2023/01/02 12:53:03;;;;;;;26.52;4.50;;;12.60;99.90;;;;;;5050005;28;20031;-88
2023/01/02 12:55:38;;;;;;;15.50;3.42;;;12.60;99.90;;;;;;4954533;28;20120;-87
2023/01/02 12:58:22;;;;;;;13.80;4.43;;;12.50;99.90;;;;;;4955168;28;20030;-87
2023/01/02 13:01:18;;;;;;;22.75;5.03;;;12.40;99.90;;;;;;4964254;28;20079;-88
2023/01/02 13:04:11;;;;;;;9.27;2.95;;;12.50;99.90;;;;;;4963510;28;20035;-88
2023/01/02 13:06:46;;;;;;;11.23;4.00;;;12.50;99.90;;;;;;4971077;28;20469;-88
2023/01/02 13:09:21;;;;;;;17.48;3.75;;;12.40;99.90;;;;;;5071669;28;20045;-88
2023/01/02 13:12:16;;;;;;;12.98;3.28;;;12.40;99.90;;;;;;4970255;28;20142;-88